createdAt,value
2018-06-19T00:00:04.558Z,22.70
2018-06-19T00:00:36.287Z,22.70
2018-06-19T00:01:08.002Z,22.80
2018-06-19T00:01:39.726Z,22.80
2018-06-19T00:02:11.469Z,22.70
2018-06-19T00:02:43.191Z,22.70
2018-06-19T00:03:14.904Z,22.70
2018-06-19T00:03:46.621Z,22.70
2018-06-19T00:04:18.338Z,22.80
2018-06-19T00:04:50.057Z,22.80
2018-06-19T00:05:21.768Z,22.80
2018-06-19T00:05:53.508Z,22.70
2018-06-19T00:06:25.193Z,22.80
2018-06-19T00:06:56.914Z,22.80
2018-06-19T00:07:28.618Z,22.80
2018-06-19T00:08:00.379Z,22.80
2018-06-19T00:08:32.126Z,22.70
2018-06-19T00:09:03.859Z,22.80
2018-06-19T00:09:35.597Z,22.80
2018-06-19T00:10:07.318Z,22.80
2018-06-19T00:10:39.033Z,22.80
2018-06-19T00:11:10.745Z,22.70
2018-06-19T00:11:42.449Z,22.80
2018-06-19T00:12:14.165Z,22.80
2018-06-19T00:12:45.890Z,22.80
2018-06-19T00:13:17.610Z,22.80
2018-06-19T00:13:49.316Z,22.80
2018-06-19T00:14:21.020Z,22.80
2018-06-19T00:14:52.747Z,22.80
2018-06-19T00:15:24.446Z,22.80
2018-06-19T00:15:56.158Z,22.80
2018-06-19T00:16:27.881Z,22.80
2018-06-19T00:16:59.600Z,22.80
2018-06-19T00:17:31.327Z,22.80
2018-06-19T00:18:03.046Z,22.80
2018-06-19T00:18:34.758Z,22.80
2018-06-19T00:19:06.459Z,22.80
2018-06-19T00:19:38.173Z,22.80
2018-06-19T00:20:09.888Z,22.80
2018-06-19T00:20:41.600Z,22.80
2018-06-19T00:21:13.309Z,22.80
2018-06-19T00:21:45.069Z,22.80
2018-06-19T00:22:16.761Z,22.80
2018-06-19T00:22:48.476Z,22.80
2018-06-19T00:23:20.210Z,22.80
2018-06-19T00:23:51.917Z,22.70
2018-06-19T00:24:23.640Z,22.70
2018-06-19T00:24:55.363Z,22.80
2018-06-19T00:25:27.086Z,22.70
2018-06-19T00:25:58.802Z,22.70
2018-06-19T00:26:30.517Z,22.70
2018-06-19T00:27:02.235Z,22.70
2018-06-19T00:27:33.945Z,22.70
2018-06-19T00:28:05.665Z,22.70
2018-06-19T00:28:37.383Z,22.70
2018-06-19T00:29:09.111Z,22.70
2018-06-19T00:29:40.845Z,22.70
2018-06-19T00:30:12.582Z,22.70
2018-06-19T00:30:44.265Z,22.70
2018-06-19T00:31:15.969Z,22.70
2018-06-19T00:31:47.695Z,22.70
2018-06-19T00:32:19.405Z,22.70
2018-06-19T00:32:51.156Z,22.70
2018-06-19T00:33:22.861Z,22.70
2018-06-19T00:33:54.575Z,22.70
2018-06-19T00:34:26.290Z,22.70
2018-06-19T00:34:57.999Z,22.70
2018-06-19T00:35:29.721Z,22.70
2018-06-19T00:36:01.431Z,22.70
2018-06-19T00:36:33.146Z,22.70
2018-06-19T00:37:04.902Z,22.70
2018-06-19T00:37:36.591Z,22.70
2018-06-19T00:38:08.312Z,22.70
2018-06-19T00:38:40.038Z,22.70
2018-06-19T00:39:11.800Z,22.70
2018-06-19T00:39:43.526Z,22.70
2018-06-19T00:40:15.267Z,22.70
2018-06-19T00:40:46.993Z,22.70
2018-06-19T00:41:18.733Z,22.70
2018-06-19T00:41:50.477Z,22.70
2018-06-19T00:42:22.203Z,22.70
2018-06-19T00:42:53.900Z,22.70
2018-06-19T00:43:25.612Z,22.70
2018-06-19T00:43:57.334Z,22.70
2018-06-19T00:44:29.102Z,22.70
2018-06-19T00:45:00.793Z,22.70
2018-06-19T00:45:32.501Z,22.70
2018-06-19T00:46:04.203Z,22.70
2018-06-19T00:46:35.919Z,22.70
2018-06-19T00:47:07.637Z,22.70
2018-06-19T00:47:39.372Z,22.70
2018-06-19T00:48:11.076Z,22.70
2018-06-19T00:49:14.825Z,22.70
2018-06-19T00:49:46.534Z,22.70
2018-06-19T00:50:18.257Z,22.70
2018-06-19T00:50:49.971Z,22.70
2018-06-19T00:51:21.727Z,22.70
2018-06-19T00:51:53.422Z,22.70
2018-06-19T00:52:25.129Z,22.70
2018-06-19T00:52:56.854Z,22.70
2018-06-19T00:53:28.566Z,22.70
2018-06-19T00:54:00.298Z,22.70
2018-06-19T00:54:32.002Z,22.70
2018-06-19T00:55:03.716Z,22.70
2018-06-19T00:55:35.424Z,22.70
2018-06-19T00:56:07.143Z,22.70
2018-06-19T00:56:38.860Z,22.70
2018-06-19T00:57:10.574Z,22.70
2018-06-19T00:57:42.292Z,22.70
2018-06-19T00:58:14.014Z,22.70
2018-06-19T00:58:45.738Z,22.70
2018-06-19T00:59:17.475Z,22.70
2018-06-19T00:59:49.202Z,22.70
2018-06-19T01:00:20.944Z,22.70
2018-06-19T01:00:52.675Z,22.70
2018-06-19T01:01:24.394Z,22.70
2018-06-19T01:01:56.107Z,22.70
2018-06-19T01:02:27.821Z,22.70
2018-06-19T01:02:59.532Z,22.70
2018-06-19T01:03:31.238Z,22.60
2018-06-19T01:04:02.952Z,22.60
2018-06-19T01:04:34.656Z,22.70
2018-06-19T01:05:06.424Z,22.60
2018-06-19T01:05:38.109Z,22.60
2018-06-19T01:06:09.825Z,22.60
2018-06-19T01:06:41.537Z,22.70
2018-06-19T01:07:13.262Z,22.60
2018-06-19T01:07:44.974Z,22.60
2018-06-19T01:08:16.720Z,22.60
2018-06-19T01:08:48.442Z,22.60
2018-06-19T01:09:20.473Z,22.60
2018-06-19T01:09:52.165Z,22.60
2018-06-19T01:10:23.901Z,22.60
2018-06-19T01:10:55.643Z,22.60
2018-06-19T01:11:27.370Z,22.60
2018-06-19T01:11:59.113Z,22.60
2018-06-19T01:12:30.835Z,22.70
2018-06-19T01:13:02.574Z,22.60
2018-06-19T01:13:34.305Z,22.60
2018-06-19T01:14:06.016Z,22.60
2018-06-19T01:14:37.741Z,22.60
2018-06-19T01:15:09.461Z,22.70
2018-06-19T01:15:41.172Z,22.70
2018-06-19T01:16:12.903Z,22.60
2018-06-19T01:16:44.618Z,22.60
2018-06-19T01:17:16.333Z,22.60
2018-06-19T01:17:48.050Z,22.50
2018-06-19T01:18:19.770Z,22.60
2018-06-19T01:18:51.487Z,22.50
2018-06-19T01:19:23.192Z,22.50
2018-06-19T01:19:54.908Z,22.50
2018-06-19T01:20:26.613Z,22.50
2018-06-19T01:20:58.401Z,22.40
2018-06-19T01:21:30.109Z,22.40
2018-06-19T01:22:01.830Z,22.40
2018-06-19T01:22:33.558Z,22.40
2018-06-19T01:23:05.258Z,22.40
2018-06-19T01:23:36.984Z,22.40
2018-06-19T01:24:08.708Z,22.40
2018-06-19T01:24:40.417Z,22.40
2018-06-19T01:25:12.277Z,22.40
2018-06-19T01:25:44.013Z,22.40
2018-06-19T01:26:15.704Z,22.40
2018-06-19T01:26:47.424Z,22.40
2018-06-19T01:27:19.200Z,22.40
2018-06-19T01:27:50.887Z,22.30
2018-06-19T01:28:22.598Z,22.40
2018-06-19T01:28:54.322Z,22.30
2018-06-19T01:29:26.046Z,22.30
2018-06-19T01:29:57.756Z,22.30
2018-06-19T01:30:29.485Z,22.30
2018-06-19T01:31:01.195Z,22.30
2018-06-19T01:31:32.896Z,22.30
2018-06-19T01:32:04.649Z,22.30
2018-06-19T01:32:36.370Z,22.30
2018-06-19T01:33:08.067Z,22.30
2018-06-19T01:33:39.802Z,22.30
2018-06-19T01:34:11.519Z,22.30
2018-06-19T01:34:43.228Z,22.30
2018-06-19T01:35:14.939Z,22.30
2018-06-19T01:35:46.720Z,22.30
2018-06-19T01:36:18.399Z,22.30
2018-06-19T01:36:50.118Z,22.20
2018-06-19T01:37:21.835Z,22.20
2018-06-19T01:37:53.577Z,22.30
2018-06-19T01:38:25.297Z,22.20
2018-06-19T01:38:57.028Z,22.30
2018-06-19T01:39:28.727Z,22.30
2018-06-19T01:40:00.455Z,22.20
2018-06-19T01:40:32.169Z,22.20
2018-06-19T01:41:03.887Z,22.20
2018-06-19T01:41:35.581Z,22.20
2018-06-19T01:42:07.317Z,22.20
2018-06-19T01:42:39.040Z,22.20
2018-06-19T01:43:10.753Z,22.20
2018-06-19T01:43:42.468Z,22.20
2018-06-19T01:44:14.201Z,22.20
2018-06-19T01:44:45.929Z,22.20
2018-06-19T01:45:17.654Z,22.20
2018-06-19T01:45:49.398Z,22.20
2018-06-19T01:46:21.118Z,22.10
2018-06-19T01:46:52.846Z,22.10
2018-06-19T01:47:24.549Z,22.10
2018-06-19T01:47:56.258Z,22.10
2018-06-19T01:48:27.999Z,22.10
2018-06-19T01:48:59.719Z,22.20
2018-06-19T01:49:31.437Z,22.10
2018-06-19T01:50:03.152Z,22.10
2018-06-19T01:50:34.872Z,22.20
2018-06-19T01:51:06.575Z,22.10
2018-06-19T01:51:38.309Z,22.10
2018-06-19T01:52:10.020Z,22.10
2018-06-19T01:52:41.764Z,22.10
2018-06-19T01:53:13.460Z,22.10
2018-06-19T01:53:45.190Z,22.10
2018-06-19T01:54:16.916Z,22.10
2018-06-19T01:54:48.668Z,22.10
2018-06-19T01:55:20.394Z,22.10
2018-06-19T01:55:52.135Z,22.10
2018-06-19T01:56:23.848Z,22.10
2018-06-19T01:56:55.551Z,22.10
2018-06-19T01:57:27.257Z,22.10
2018-06-19T01:57:58.966Z,22.10
2018-06-19T01:58:30.712Z,22.10
2018-06-19T01:59:02.413Z,22.10
2018-06-19T01:59:34.190Z,22.10
2018-06-19T02:00:05.859Z,22.20
2018-06-19T02:00:37.569Z,22.20
2018-06-19T02:01:09.286Z,22.10
2018-06-19T02:01:41.403Z,22.10
2018-06-19T02:02:13.074Z,22.20
2018-06-19T02:02:44.777Z,22.20
2018-06-19T02:03:48.534Z,22.20
2018-06-19T02:04:20.255Z,22.20
2018-06-19T02:04:52.002Z,22.10
2018-06-19T02:05:23.731Z,22.10
2018-06-19T02:05:55.447Z,22.10
2018-06-19T02:06:27.147Z,22.10
2018-06-19T02:06:58.858Z,22.10
2018-06-19T02:07:30.623Z,22.20
2018-06-19T02:08:02.310Z,22.20
2018-06-19T02:08:34.021Z,22.20
2018-06-19T02:09:05.722Z,22.20
2018-06-19T02:09:37.450Z,22.20
2018-06-19T02:10:09.679Z,22.20
2018-06-19T02:10:41.530Z,22.20
2018-06-19T02:11:13.382Z,22.20
2018-06-19T02:11:45.062Z,22.20
2018-06-19T02:12:16.787Z,22.20
2018-06-19T02:12:48.493Z,22.20
2018-06-19T02:13:20.210Z,22.20
2018-06-19T02:13:52.026Z,22.20
2018-06-19T02:14:23.773Z,22.20
2018-06-19T02:14:55.509Z,22.20
2018-06-19T02:15:27.229Z,22.30
2018-06-19T02:15:58.967Z,22.30
2018-06-19T02:16:30.672Z,22.30
2018-06-19T02:17:02.393Z,22.30
2018-06-19T02:17:34.107Z,22.30
2018-06-19T02:18:05.812Z,22.30
2018-06-19T02:18:37.539Z,22.30
2018-06-19T02:19:09.260Z,22.30
2018-06-19T02:19:41.016Z,22.40
2018-06-19T02:20:12.759Z,22.40
2018-06-19T02:20:44.487Z,22.40
2018-06-19T02:21:16.215Z,22.40
2018-06-19T02:21:47.954Z,22.40
2018-06-19T02:22:19.666Z,22.30
2018-06-19T02:22:51.397Z,22.40
2018-06-19T02:23:23.113Z,22.40
2018-06-19T02:23:54.810Z,22.30
2018-06-19T02:24:26.537Z,22.30
2018-06-19T02:24:58.238Z,22.30
2018-06-19T02:25:29.955Z,22.30
2018-06-19T02:26:01.697Z,22.20
2018-06-19T02:26:33.418Z,22.20
2018-06-19T02:27:05.161Z,22.20
2018-06-19T02:27:36.875Z,22.20
2018-06-19T02:28:08.586Z,22.20
2018-06-19T02:28:40.305Z,22.20
2018-06-19T02:29:12.016Z,22.20
2018-06-19T02:29:43.730Z,22.30
2018-06-19T02:30:15.528Z,22.30
2018-06-19T02:30:47.231Z,22.40
2018-06-19T02:31:18.968Z,22.30
2018-06-19T02:31:50.739Z,22.30
2018-06-19T02:32:22.436Z,22.30
2018-06-19T02:32:54.160Z,22.40
2018-06-19T02:33:25.894Z,22.40
2018-06-19T02:33:57.599Z,22.40
2018-06-19T02:34:29.317Z,22.40
2018-06-19T02:35:01.046Z,22.50
2018-06-19T02:35:32.757Z,22.40
2018-06-19T02:36:04.457Z,22.40
2018-06-19T02:36:36.171Z,22.40
2018-06-19T02:37:07.883Z,22.40
2018-06-19T02:37:39.614Z,22.40
2018-06-19T02:38:11.342Z,22.40
2018-06-19T02:38:43.042Z,22.40
2018-06-19T02:39:14.776Z,22.40
2018-06-19T02:39:46.488Z,22.40
2018-06-19T02:40:18.242Z,22.40
2018-06-19T02:40:49.959Z,22.40
2018-06-19T02:41:21.663Z,22.40
2018-06-19T02:41:53.394Z,22.40
2018-06-19T02:42:25.108Z,22.40
2018-06-19T02:42:56.821Z,22.40
2018-06-19T02:43:28.540Z,22.40
2018-06-19T02:44:00.231Z,22.40
2018-06-19T02:44:31.937Z,22.40
2018-06-19T02:45:03.659Z,22.40
2018-06-19T02:45:35.415Z,22.40
2018-06-19T02:46:07.132Z,22.40
2018-06-19T02:46:38.854Z,22.40
2018-06-19T02:47:10.566Z,22.50
2018-06-19T02:47:42.274Z,22.50
2018-06-19T02:48:13.979Z,22.50
2018-06-19T02:48:45.705Z,22.50
2018-06-19T02:49:17.408Z,22.50
2018-06-19T02:49:49.144Z,22.50
2018-06-19T02:50:20.888Z,22.50
2018-06-19T02:50:52.582Z,22.50
2018-06-19T02:51:24.305Z,22.50
2018-06-19T02:51:56.052Z,22.50
2018-06-19T02:52:27.771Z,22.50
2018-06-19T02:52:59.493Z,22.50
2018-06-19T02:53:31.216Z,22.50
2018-06-19T02:54:02.923Z,22.50
2018-06-19T02:54:34.667Z,22.50
2018-06-19T02:55:06.374Z,22.50
2018-06-19T02:55:38.075Z,22.50
2018-06-19T02:56:09.804Z,22.40
2018-06-19T02:56:41.519Z,22.40
2018-06-19T02:57:14.406Z,22.40
2018-06-19T02:57:46.168Z,22.30
2018-06-19T02:58:17.920Z,22.30
2018-06-19T02:58:49.621Z,22.30
2018-06-19T02:59:21.353Z,22.30
2018-06-19T02:59:53.059Z,22.30
2018-06-19T03:00:24.835Z,22.30
2018-06-19T03:00:56.594Z,22.30
2018-06-19T03:01:28.278Z,22.30
2018-06-19T03:01:59.990Z,22.30
2018-06-19T03:02:31.697Z,22.30
2018-06-19T03:03:03.427Z,22.30
2018-06-19T03:03:35.127Z,22.30
2018-06-19T03:04:06.840Z,22.30
2018-06-19T03:04:38.553Z,22.20
2018-06-19T03:05:10.309Z,22.20
2018-06-19T03:05:42.012Z,22.30
2018-06-19T03:06:13.734Z,22.20
2018-06-19T03:06:45.497Z,22.20
2018-06-19T03:07:17.189Z,22.20
2018-06-19T03:07:48.922Z,22.20
2018-06-19T03:08:20.631Z,22.10
2018-06-19T03:08:52.350Z,22.20
2018-06-19T03:09:24.094Z,22.10
2018-06-19T03:09:55.797Z,22.10
2018-06-19T03:10:27.506Z,22.10
2018-06-19T03:10:59.223Z,22.10
2018-06-19T03:11:30.959Z,22.10
2018-06-19T03:12:02.663Z,22.10
2018-06-19T03:12:34.385Z,22.10
2018-06-19T03:13:06.097Z,22.10
2018-06-19T03:13:37.824Z,22.10
2018-06-19T03:14:09.531Z,22.10
2018-06-19T03:14:41.253Z,22.10
2018-06-19T03:15:12.991Z,22.10
2018-06-19T03:15:44.722Z,22.10
2018-06-19T03:16:16.464Z,22.10
2018-06-19T03:16:48.235Z,22.10
2018-06-19T03:17:19.933Z,22.10
2018-06-19T03:17:51.660Z,22.10
2018-06-19T03:18:23.403Z,22.10
2018-06-19T03:18:55.110Z,22.10
2018-06-19T03:19:26.820Z,22.10
2018-06-19T03:19:58.543Z,22.10
2018-06-19T03:20:30.262Z,22.20
2018-06-19T03:21:01.997Z,22.10
2018-06-19T03:21:33.708Z,22.10
2018-06-19T03:22:05.419Z,22.10
2018-06-19T03:22:37.127Z,22.10
2018-06-19T03:23:08.840Z,22.00
2018-06-19T03:23:40.548Z,22.00
2018-06-19T03:24:12.267Z,22.00
2018-06-19T03:24:43.974Z,22.00
2018-06-19T03:25:15.703Z,22.00
2018-06-19T03:25:47.423Z,22.00
2018-06-19T03:26:19.140Z,22.00
2018-06-19T03:26:50.848Z,22.00
2018-06-19T03:27:22.558Z,22.00
2018-06-19T03:27:54.286Z,22.00
2018-06-19T03:28:26.019Z,22.00
2018-06-19T03:28:57.732Z,22.00
2018-06-19T03:29:29.452Z,22.10
2018-06-19T03:30:01.157Z,22.00
2018-06-19T03:30:32.866Z,22.10
2018-06-19T03:31:04.590Z,22.10
2018-06-19T03:31:36.306Z,22.10
2018-06-19T03:32:08.057Z,22.10
2018-06-19T03:32:39.753Z,22.20
2018-06-19T03:33:11.490Z,22.20
2018-06-19T03:33:43.287Z,22.20
2018-06-19T03:34:14.998Z,22.30
2018-06-19T03:34:46.700Z,22.20
2018-06-19T03:35:18.404Z,22.30
2018-06-19T03:35:50.146Z,22.30
2018-06-19T03:36:21.915Z,22.30
2018-06-19T03:36:53.685Z,22.30
2018-06-19T03:37:25.362Z,22.40
2018-06-19T03:37:57.075Z,22.40
2018-06-19T03:38:28.794Z,22.40
2018-06-19T03:39:00.516Z,22.40
2018-06-19T03:39:32.238Z,22.40
2018-06-19T03:40:03.954Z,22.40
2018-06-19T03:40:35.664Z,22.40
2018-06-19T03:41:07.415Z,22.40
2018-06-19T03:41:39.118Z,22.40
2018-06-19T03:42:10.830Z,22.40
2018-06-19T03:42:42.561Z,22.40
2018-06-19T03:43:14.271Z,22.40
2018-06-19T03:44:17.987Z,22.30
2018-06-19T03:44:49.712Z,22.30
2018-06-19T03:45:21.483Z,22.30
2018-06-19T03:45:53.198Z,22.30
2018-06-19T03:46:24.917Z,22.20
2018-06-19T03:46:56.635Z,22.30
2018-06-19T03:47:28.348Z,22.30
2018-06-19T03:48:00.107Z,22.30
2018-06-19T03:48:31.789Z,22.30
2018-06-19T03:49:03.530Z,22.30
2018-06-19T03:49:35.241Z,22.30
2018-06-19T03:50:06.957Z,22.30
2018-06-19T03:50:38.686Z,22.30
2018-06-19T03:51:10.396Z,22.20
2018-06-19T03:51:42.104Z,22.30
2018-06-19T03:52:13.823Z,22.30
2018-06-19T03:52:45.547Z,22.30
2018-06-19T03:53:17.242Z,22.20
2018-06-19T03:53:48.985Z,22.20
2018-06-19T03:54:20.707Z,22.20
2018-06-19T03:54:52.423Z,22.20
2018-06-19T03:55:24.136Z,22.20
2018-06-19T03:55:55.856Z,22.20
2018-06-19T03:56:27.622Z,22.20
2018-06-19T03:56:59.309Z,22.20
2018-06-19T03:57:31.025Z,22.20
2018-06-19T03:58:02.768Z,22.20
2018-06-19T03:58:34.493Z,22.20
2018-06-19T03:59:06.196Z,22.30
2018-06-19T03:59:37.903Z,22.20
2018-06-19T04:00:09.624Z,22.30
2018-06-19T04:00:41.340Z,22.20
2018-06-19T04:01:13.062Z,22.20
2018-06-19T04:01:44.762Z,22.20
2018-06-19T04:02:16.497Z,22.30
2018-06-19T04:02:48.210Z,22.20
2018-06-19T04:03:19.937Z,22.20
2018-06-19T04:03:51.641Z,22.20
2018-06-19T04:04:23.345Z,22.30
2018-06-19T04:04:55.078Z,22.30
2018-06-19T04:05:26.797Z,22.30
2018-06-19T04:05:58.510Z,22.30
2018-06-19T04:06:30.239Z,22.30
2018-06-19T04:07:01.963Z,22.30
2018-06-19T04:07:33.696Z,22.30
2018-06-19T04:08:05.402Z,22.30
2018-06-19T04:08:37.127Z,22.30
2018-06-19T04:09:08.824Z,22.30
2018-06-19T04:09:40.538Z,22.30
2018-06-19T04:10:12.252Z,22.40
2018-06-19T04:10:43.974Z,22.30
2018-06-19T04:11:15.720Z,22.30
2018-06-19T04:11:47.526Z,22.30
2018-06-19T04:12:19.253Z,22.30
2018-06-19T04:12:50.946Z,22.30
2018-06-19T04:13:22.665Z,22.30
2018-06-19T04:13:54.422Z,22.30
2018-06-19T04:14:26.084Z,22.30
2018-06-19T04:14:57.833Z,22.30
2018-06-19T04:15:29.545Z,22.30
2018-06-19T04:16:01.257Z,22.20
2018-06-19T04:16:32.951Z,22.30
2018-06-19T04:17:04.668Z,22.20
2018-06-19T04:17:36.393Z,22.20
2018-06-19T04:18:08.101Z,22.10
2018-06-19T04:18:39.824Z,22.10
2018-06-19T04:19:11.545Z,22.10
2018-06-19T04:19:43.253Z,22.10
2018-06-19T04:20:14.976Z,22.10
2018-06-19T04:20:46.669Z,22.00
2018-06-19T04:21:18.420Z,22.00
2018-06-19T04:21:50.134Z,22.00
2018-06-19T04:22:21.850Z,22.00
2018-06-19T04:22:53.577Z,22.00
2018-06-19T04:23:25.312Z,22.00
2018-06-19T04:23:57.021Z,22.00
2018-06-19T04:24:28.754Z,22.00
2018-06-19T04:25:00.494Z,22.00
2018-06-19T04:25:32.198Z,22.00
2018-06-19T04:26:03.924Z,21.90
2018-06-19T04:26:35.649Z,21.90
2018-06-19T04:27:07.354Z,21.90
2018-06-19T04:27:39.068Z,21.90
2018-06-19T04:28:10.784Z,21.90
2018-06-19T04:28:42.496Z,21.90
2018-06-19T04:29:14.219Z,21.90
2018-06-19T04:29:45.932Z,21.90
2018-06-19T04:30:17.652Z,21.90
2018-06-19T04:30:49.399Z,21.80
2018-06-19T04:31:21.119Z,21.80
2018-06-19T04:31:52.837Z,21.80
2018-06-19T04:32:24.537Z,21.80
2018-06-19T04:32:56.268Z,21.80
2018-06-19T04:33:28.039Z,21.80
2018-06-19T04:33:59.693Z,21.80
2018-06-19T04:34:31.406Z,21.80
2018-06-19T04:35:03.123Z,21.80
2018-06-19T04:35:34.840Z,21.80
2018-06-19T04:36:07.031Z,21.80
2018-06-19T04:36:39.078Z,21.80
2018-06-19T04:37:10.792Z,21.90
2018-06-19T04:37:42.509Z,21.80
2018-06-19T04:38:46.206Z,21.90
2018-06-19T04:39:17.925Z,21.90
2018-06-19T04:39:49.634Z,22.00
2018-06-19T04:40:21.347Z,22.00
2018-06-19T04:40:53.099Z,22.00
2018-06-19T04:41:24.822Z,22.00
2018-06-19T04:41:56.554Z,22.00
2018-06-19T04:42:28.253Z,22.00
2018-06-19T04:43:00.029Z,22.10
2018-06-19T04:43:31.723Z,22.10
2018-06-19T04:44:03.434Z,22.10
2018-06-19T04:44:35.186Z,22.10
2018-06-19T04:45:06.895Z,22.10
2018-06-19T04:45:38.614Z,22.10
2018-06-19T04:46:10.317Z,22.10
2018-06-19T04:46:42.035Z,22.10
2018-06-19T04:47:13.772Z,22.10
2018-06-19T04:47:45.472Z,22.10
2018-06-19T04:48:17.192Z,22.10
2018-06-19T04:48:48.906Z,22.10
2018-06-19T04:49:20.605Z,22.10
2018-06-19T04:49:52.344Z,22.10
2018-06-19T04:50:24.038Z,22.10
2018-06-19T04:50:55.751Z,22.20
2018-06-19T04:51:27.498Z,22.20
2018-06-19T04:51:59.224Z,22.30
2018-06-19T04:52:30.934Z,22.20
2018-06-19T04:53:02.647Z,22.20
2018-06-19T04:53:34.359Z,22.20
2018-06-19T04:54:06.089Z,22.20
2018-06-19T04:54:37.804Z,22.20
2018-06-19T04:55:09.507Z,22.20
2018-06-19T04:55:41.224Z,22.20
2018-06-19T04:56:12.942Z,22.20
2018-06-19T04:56:44.675Z,22.20
2018-06-19T04:57:16.420Z,22.20
2018-06-19T04:57:48.108Z,22.20
2018-06-19T04:58:19.856Z,22.20
2018-06-19T04:58:51.547Z,22.20
2018-06-19T04:59:23.289Z,22.20
2018-06-19T04:59:55.000Z,22.20
2018-06-19T05:00:26.725Z,22.20
2018-06-19T05:00:58.434Z,22.20
2018-06-19T05:01:30.168Z,22.20
2018-06-19T05:02:01.885Z,22.20
2018-06-19T05:02:33.609Z,22.20
2018-06-19T05:03:05.331Z,22.20
2018-06-19T05:03:37.064Z,22.20
2018-06-19T05:04:08.801Z,22.20
2018-06-19T05:04:40.507Z,22.30
2018-06-19T05:05:12.260Z,22.20
2018-06-19T05:05:44.002Z,22.20
2018-06-19T05:06:15.734Z,22.20
2018-06-19T05:06:47.474Z,22.20
2018-06-19T05:07:19.178Z,22.20
2018-06-19T05:07:50.907Z,22.20
2018-06-19T05:08:22.610Z,22.20
2018-06-19T05:08:54.322Z,22.20
2018-06-19T05:09:26.033Z,22.20
2018-06-19T05:09:57.787Z,22.20
2018-06-19T05:10:29.464Z,22.20
2018-06-19T05:11:01.178Z,22.20
2018-06-19T05:11:32.923Z,22.20
2018-06-19T05:12:04.633Z,22.20
2018-06-19T05:12:36.353Z,22.20
2018-06-19T05:13:08.063Z,22.20
2018-06-19T05:13:39.794Z,22.20
2018-06-19T05:14:11.526Z,22.20
2018-06-19T05:14:43.229Z,22.20
2018-06-19T05:15:14.933Z,22.20
2018-06-19T05:15:46.648Z,22.20
2018-06-19T05:16:18.359Z,22.20
2018-06-19T05:16:50.098Z,22.30
2018-06-19T05:17:21.799Z,22.30
2018-06-19T05:17:53.519Z,22.30
2018-06-19T05:18:25.234Z,22.30
2018-06-19T05:18:56.950Z,22.30
2018-06-19T05:19:28.673Z,22.30
2018-06-19T05:20:00.437Z,22.30
2018-06-19T05:20:32.119Z,22.20
2018-06-19T05:21:03.838Z,22.20
2018-06-19T05:21:35.557Z,22.30
2018-06-19T05:22:07.261Z,22.30
2018-06-19T05:22:38.965Z,22.30
2018-06-19T05:23:10.678Z,22.20
2018-06-19T05:23:42.415Z,22.20
2018-06-19T05:24:14.106Z,22.20
2018-06-19T05:24:45.858Z,22.20
2018-06-19T05:25:17.589Z,22.30
2018-06-19T05:25:49.283Z,22.30
2018-06-19T05:26:21.006Z,22.30
2018-06-19T05:26:52.824Z,22.30
2018-06-19T05:27:24.533Z,22.30
2018-06-19T05:27:56.267Z,22.30
2018-06-19T05:28:27.960Z,22.30
2018-06-19T05:28:59.667Z,22.30
2018-06-19T05:29:31.402Z,22.30
2018-06-19T05:30:03.112Z,22.30
2018-06-19T05:30:34.823Z,22.30
2018-06-19T05:31:06.594Z,22.30
2018-06-19T05:31:38.334Z,22.30
2018-06-19T05:32:10.052Z,22.30
2018-06-19T05:32:41.807Z,22.30
2018-06-19T05:33:13.512Z,22.30
2018-06-19T05:33:45.237Z,22.40
2018-06-19T05:34:16.970Z,22.30
2018-06-19T05:34:48.683Z,22.30
2018-06-19T05:35:20.398Z,22.30
2018-06-19T05:35:52.112Z,22.30
2018-06-19T05:36:23.821Z,22.20
2018-06-19T05:36:55.554Z,22.20
2018-06-19T05:37:27.265Z,22.20
2018-06-19T05:37:58.973Z,22.20
2018-06-19T05:38:30.712Z,22.30
2018-06-19T05:39:02.427Z,22.30
2018-06-19T05:39:34.139Z,22.30
2018-06-19T05:40:05.841Z,22.30
2018-06-19T05:40:37.561Z,22.30
2018-06-19T05:41:09.282Z,22.30
2018-06-19T05:41:41.013Z,22.30
2018-06-19T05:42:12.722Z,22.30
2018-06-19T05:42:44.422Z,22.30
2018-06-19T05:43:16.149Z,22.30
2018-06-19T05:43:47.890Z,22.30
2018-06-19T05:44:19.670Z,22.30
2018-06-19T05:44:51.379Z,22.30
2018-06-19T05:45:23.102Z,22.30
2018-06-19T05:45:54.820Z,22.30
2018-06-19T05:46:26.531Z,22.30
2018-06-19T05:46:58.233Z,22.30
2018-06-19T05:47:29.940Z,22.30
2018-06-19T05:48:01.654Z,22.30
2018-06-19T05:48:33.426Z,22.30
2018-06-19T05:49:05.122Z,22.30
2018-06-19T05:49:36.875Z,22.30
2018-06-19T05:50:08.613Z,22.20
2018-06-19T05:50:40.319Z,22.30
2018-06-19T05:51:12.038Z,22.30
2018-06-19T05:51:43.753Z,22.30
2018-06-19T05:52:15.511Z,22.30
2018-06-19T05:52:47.278Z,22.30
2018-06-19T05:53:18.940Z,22.30
2018-06-19T05:53:50.641Z,22.30
2018-06-19T05:54:22.369Z,22.30
2018-06-19T05:54:54.065Z,22.20
2018-06-19T05:55:25.789Z,22.20
2018-06-19T05:55:57.501Z,22.20
2018-06-19T05:56:29.260Z,22.20
2018-06-19T05:57:00.987Z,22.30
2018-06-19T05:57:32.678Z,22.20
2018-06-19T05:58:04.382Z,22.30
2018-06-19T05:58:36.139Z,22.20
2018-06-19T05:59:07.862Z,22.30
2018-06-19T05:59:39.582Z,22.30
2018-06-19T06:00:11.362Z,22.20
2018-06-19T06:00:43.016Z,22.20
2018-06-19T06:01:14.742Z,22.20
2018-06-19T06:01:46.455Z,22.20
2018-06-19T06:02:18.182Z,22.20
2018-06-19T06:02:49.891Z,22.20
2018-06-19T06:03:21.607Z,22.30
2018-06-19T06:03:53.331Z,22.20
2018-06-19T06:04:25.051Z,22.20
2018-06-19T06:04:56.759Z,22.20
2018-06-19T06:05:28.558Z,22.20
2018-06-19T06:06:00.207Z,22.20
2018-06-19T06:06:31.916Z,22.20
2018-06-19T06:07:03.651Z,22.20
2018-06-19T06:07:35.349Z,22.20
2018-06-19T06:08:07.080Z,22.30
2018-06-19T06:08:38.885Z,22.30
2018-06-19T06:09:10.572Z,22.30
2018-06-19T06:09:42.290Z,22.30
2018-06-19T06:10:13.993Z,22.30
2018-06-19T06:10:45.698Z,22.30
2018-06-19T06:11:17.466Z,22.40
2018-06-19T06:11:49.117Z,22.40
2018-06-19T06:12:20.834Z,22.40
2018-06-19T06:12:52.548Z,22.40
2018-06-19T06:13:24.268Z,22.40
2018-06-19T06:13:55.998Z,22.40
2018-06-19T06:14:27.701Z,22.30
2018-06-19T06:14:59.439Z,22.30
2018-06-19T06:15:31.206Z,22.30
2018-06-19T06:16:02.897Z,22.30
2018-06-19T06:16:34.681Z,22.30
2018-06-19T06:17:06.363Z,22.30
2018-06-19T06:17:38.064Z,22.30
2018-06-19T06:18:09.789Z,22.40
2018-06-19T06:18:41.495Z,22.30
2018-06-19T06:19:13.198Z,22.30
2018-06-19T06:19:44.917Z,22.30
2018-06-19T06:20:16.636Z,22.40
2018-06-19T06:20:48.338Z,22.30
2018-06-19T06:21:20.055Z,22.30
2018-06-19T06:21:51.764Z,22.20
2018-06-19T06:22:23.502Z,22.20
2018-06-19T06:22:55.215Z,22.30
2018-06-19T06:23:26.936Z,22.30
2018-06-19T06:23:58.622Z,22.30
2018-06-19T06:24:30.339Z,22.30
2018-06-19T06:25:02.119Z,22.30
2018-06-19T06:25:33.836Z,22.30
2018-06-19T06:26:05.549Z,22.30
2018-06-19T06:26:37.240Z,22.30
2018-06-19T06:27:08.967Z,22.30
2018-06-19T06:27:40.709Z,22.20
2018-06-19T06:28:12.414Z,22.20
2018-06-19T06:28:44.117Z,22.30
2018-06-19T06:29:15.861Z,22.20
2018-06-19T06:29:47.565Z,22.20
2018-06-19T06:30:19.263Z,22.20
2018-06-19T06:30:50.998Z,22.20
2018-06-19T06:31:22.748Z,22.20
2018-06-19T06:31:54.438Z,22.30
2018-06-19T06:32:26.150Z,22.20
2018-06-19T06:32:57.868Z,22.20
2018-06-19T06:33:29.598Z,22.30
2018-06-19T06:34:01.331Z,22.20
2018-06-19T06:34:33.034Z,22.30
2018-06-19T06:35:04.742Z,22.30
2018-06-19T06:35:36.483Z,22.30
2018-06-19T06:36:08.182Z,22.30
2018-06-19T06:36:39.895Z,22.30
2018-06-19T06:37:11.610Z,22.30
2018-06-19T06:37:43.380Z,22.30
2018-06-19T06:38:15.079Z,22.30
2018-06-19T06:38:46.785Z,22.30
2018-06-19T06:39:18.528Z,22.30
2018-06-19T06:39:50.333Z,22.40
2018-06-19T06:40:22.062Z,22.50
2018-06-19T06:40:53.787Z,22.50
2018-06-19T06:41:25.474Z,22.50
2018-06-19T06:41:57.186Z,22.50
2018-06-19T06:42:28.898Z,22.50
2018-06-19T06:43:00.598Z,22.50
2018-06-19T06:43:32.598Z,22.50
2018-06-19T06:44:04.277Z,22.50
2018-06-19T06:44:35.995Z,22.50
2018-06-19T06:45:07.711Z,22.50
2018-06-19T06:45:39.416Z,22.40
2018-06-19T06:46:11.122Z,22.40
2018-06-19T06:46:42.825Z,22.40
2018-06-19T06:47:14.542Z,22.40
2018-06-19T06:47:46.278Z,22.40
2018-06-19T06:48:17.985Z,22.40
2018-06-19T06:48:49.697Z,22.40
2018-06-19T06:49:21.423Z,22.40
2018-06-19T06:49:53.140Z,22.40
2018-06-19T06:50:24.927Z,22.40